Aviation Digital Data Service (ADDS)

Output produced by METARs form (1334 UTC 29 September 2016)
found at http://aviationweather.gov/adds/metars/
 
KHUL 291124Z 2912/3012 02006KT P6SM FEW100